createdAt,value
2019-05-15T00:00:13.345Z,57.00
2019-05-15T00:02:18.528Z,57.00
2019-05-15T00:04:28.088Z,57.00
2019-05-15T00:06:34.256Z,57.00
2019-05-15T00:08:39.284Z,57.10
2019-05-15T00:10:44.780Z,57.10
2019-05-15T00:12:54.874Z,57.20
2019-05-15T00:14:59.660Z,57.30
2019-05-15T00:17:05.355Z,57.40
2019-05-15T00:19:11.648Z,57.30
2019-05-15T00:21:51.807Z,57.30
2019-05-15T00:23:58.807Z,57.30
2019-05-15T00:26:04.746Z,57.30
2019-05-15T00:28:11.173Z,57.30
2019-05-15T00:30:18.334Z,57.20
2019-05-15T00:32:25.255Z,57.30
2019-05-15T00:34:30.304Z,57.30
2019-05-15T00:36:38.105Z,57.30
2019-05-15T00:38:44.408Z,57.30
2019-05-15T00:40:50.285Z,57.30
2019-05-15T00:42:57.884Z,57.30
2019-05-15T00:45:05.045Z,57.30
2019-05-15T00:47:11.091Z,57.30
2019-05-15T00:49:18.954Z,57.30
2019-05-15T00:51:23.890Z,57.30
2019-05-15T00:53:30.136Z,57.30
2019-05-15T00:55:37.970Z,57.30
2019-05-15T00:57:44.156Z,57.30
2019-05-15T00:59:50.415Z,57.40
2019-05-15T01:01:56.284Z,57.20
2019-05-15T01:04:02.281Z,57.30
2019-05-15T01:06:09.276Z,57.30
2019-05-15T01:08:18.935Z,57.40
2019-05-15T01:10:24.217Z,57.40
2019-05-15T01:12:29.196Z,57.40
2019-05-15T01:14:33.941Z,57.40
2019-05-15T01:16:38.832Z,57.40
2019-05-15T01:18:44.884Z,57.40
2019-05-15T01:20:50.809Z,57.40
2019-05-15T01:22:55.923Z,57.40
2019-05-15T01:25:01.036Z,57.50
2019-05-15T01:27:06.015Z,57.50
2019-05-15T01:29:12.991Z,57.50
2019-05-15T01:31:19.068Z,57.50
2019-05-15T01:33:28.428Z,57.40
2019-05-15T01:35:35.575Z,57.40
2019-05-15T01:37:42.395Z,57.40
2019-05-15T01:39:49.382Z,57.40
2019-05-15T01:41:55.736Z,57.50
2019-05-15T01:44:02.522Z,57.50
2019-05-15T01:46:08.388Z,57.40
2019-05-15T01:48:14.975Z,57.40
2019-05-15T01:50:19.988Z,57.50
2019-05-15T01:52:27.814Z,57.40
2019-05-15T01:54:34.578Z,57.40
2019-05-15T01:56:40.588Z,57.40
2019-05-15T01:58:48.720Z,57.40
2019-05-15T02:00:56.081Z,57.40
2019-05-15T02:03:01.878Z,57.40
2019-05-15T02:05:09.195Z,57.40
2019-05-15T02:07:14.646Z,57.40
2019-05-15T02:09:20.842Z,57.50
2019-05-15T02:11:28.905Z,57.50
2019-05-15T02:13:34.090Z,57.40
2019-05-15T02:15:42.138Z,57.40
2019-05-15T02:17:48.219Z,57.40
2019-05-15T02:19:56.116Z,57.40
2019-05-15T02:22:01.873Z,57.40
2019-05-15T02:24:08.144Z,57.40
2019-05-15T02:26:13.403Z,57.40
2019-05-15T02:28:19.581Z,57.40
2019-05-15T02:30:33.932Z,57.40
2019-05-15T02:32:39.663Z,57.50
2019-05-15T02:34:45.364Z,57.50
2019-05-15T02:36:51.189Z,57.40
2019-05-15T02:38:59.654Z,57.50
2019-05-15T02:41:04.930Z,57.50
2019-05-15T02:43:10.867Z,57.40
2019-05-15T02:45:19.543Z,57.50
2019-05-15T02:47:25.185Z,57.40
2019-05-15T02:49:31.981Z,57.50
2019-05-15T02:51:39.835Z,57.50
2019-05-15T02:53:45.678Z,57.50
2019-05-15T02:55:51.434Z,57.40
2019-05-15T02:57:59.073Z,57.40
2019-05-15T03:00:05.546Z,57.50
2019-05-15T03:02:11.588Z,57.50
2019-05-15T03:04:19.924Z,57.50
2019-05-15T03:06:24.106Z,57.70
2019-05-15T03:08:31.415Z,57.70
2019-05-15T03:10:40.621Z,57.70
2019-05-15T03:12:49.433Z,57.80
2019-05-15T03:14:53.423Z,57.70
2019-05-15T03:16:59.838Z,57.80
2019-05-15T03:19:06.081Z,57.70
2019-05-15T03:21:13.285Z,57.70
2019-05-15T03:23:20.267Z,57.50
2019-05-15T03:25:29.529Z,57.40
2019-05-15T03:27:34.975Z,57.10
2019-05-15T03:29:40.611Z,57.10
2019-05-15T03:32:01.305Z,56.90
2019-05-15T03:33:55.114Z,56.80
2019-05-15T03:36:03.119Z,56.60
2019-05-15T03:38:09.387Z,56.50
2019-05-15T03:40:19.393Z,56.30
2019-05-15T03:42:23.570Z,56.20
2019-05-15T03:44:30.250Z,56.00
2019-05-15T03:46:39.883Z,56.00
2019-05-15T03:48:48.551Z,55.80
2019-05-15T03:50:53.345Z,55.70
2019-05-15T03:52:59.698Z,55.60
2019-05-15T03:55:05.959Z,55.50
2019-05-15T03:57:12.980Z,55.40
2019-05-15T03:59:19.436Z,55.30
2019-05-15T04:01:33.953Z,55.40
2019-05-15T04:03:32.715Z,55.20
2019-05-15T04:05:39.300Z,55.20
2019-05-15T04:07:45.376Z,55.10
2019-05-15T04:09:51.263Z,55.00
2019-05-15T04:12:01.304Z,55.00
2019-05-15T04:14:10.035Z,54.90
2019-05-15T04:16:19.122Z,54.90
2019-05-15T04:18:29.043Z,54.80
2019-05-15T04:20:34.696Z,54.80
2019-05-15T04:22:41.510Z,54.70
2019-05-15T04:24:49.549Z,54.70
2019-05-15T04:26:59.850Z,54.60
2019-05-15T04:29:04.811Z,55.30
2019-05-15T04:31:10.870Z,54.50
2019-05-15T04:33:15.794Z,54.40
2019-05-15T04:35:21.582Z,54.40
2019-05-15T04:37:29.883Z,54.40
2019-05-15T04:39:34.115Z,54.30
2019-05-15T04:41:40.236Z,54.30
2019-05-15T04:43:49.385Z,54.20
2019-05-15T04:45:53.869Z,54.20
2019-05-15T04:48:01.725Z,54.10
2019-05-15T04:50:08.930Z,54.10
2019-05-15T04:52:19.476Z,54.10
2019-05-15T04:54:28.727Z,54.00
2019-05-15T04:56:40.039Z,54.00
2019-05-15T04:58:50.278Z,54.00
2019-05-15T05:00:54.863Z,54.10
2019-05-15T05:03:03.667Z,54.10
2019-05-15T05:05:10.888Z,54.20
2019-05-15T05:07:18.892Z,54.30
2019-05-15T05:09:24.964Z,54.50
2019-05-15T05:11:32.490Z,54.50
2019-05-15T05:13:39.689Z,54.30
2019-05-15T05:15:45.838Z,54.50
2019-05-15T05:17:52.293Z,54.50
2019-05-15T05:19:58.371Z,54.60
2019-05-15T05:22:08.595Z,54.80
2019-05-15T05:24:18.568Z,54.90
2019-05-15T05:26:24.421Z,55.30
2019-05-15T05:28:31.779Z,55.40
2019-05-15T05:30:38.581Z,55.50
2019-05-15T05:32:45.723Z,55.60
2019-05-15T05:34:53.598Z,55.70
2019-05-15T05:37:03.194Z,55.60
2019-05-15T05:39:13.626Z,55.70
2019-05-15T05:41:19.369Z,55.70
2019-05-15T05:43:24.978Z,55.60
2019-05-15T05:45:31.300Z,55.50
2019-05-15T05:47:40.042Z,55.50
2019-05-15T05:50:09.849Z,55.50
2019-05-15T05:52:18.581Z,55.40
2019-05-15T05:54:28.648Z,55.40
2019-05-15T05:56:34.034Z,55.30
2019-05-15T05:58:40.922Z,55.30
2019-05-15T06:00:50.342Z,55.30
2019-05-15T06:02:59.105Z,55.20
2019-05-15T06:05:04.903Z,55.20
2019-05-15T06:07:14.523Z,55.20
2019-05-15T06:09:20.074Z,55.10
2019-05-15T06:11:27.727Z,55.10
2019-05-15T06:13:34.874Z,55.10
2019-05-15T06:15:41.653Z,55.00
2019-05-15T06:17:48.136Z,55.10
2019-05-15T06:19:55.657Z,55.20
2019-05-15T06:22:02.187Z,55.30
2019-05-15T06:24:13.201Z,55.30
2019-05-15T06:26:19.686Z,55.40
2019-05-15T06:28:25.328Z,55.40
2019-05-15T06:30:31.491Z,55.50
2019-05-15T06:32:39.870Z,55.70
2019-05-15T06:34:48.479Z,55.70
2019-05-15T06:36:54.564Z,55.60
2019-05-15T06:39:02.690Z,55.70
2019-05-15T06:41:10.703Z,55.90
2019-05-15T06:43:19.146Z,56.00
2019-05-15T06:45:25.457Z,56.10
2019-05-15T06:47:30.917Z,56.10
2019-05-15T06:49:37.805Z,56.10
2019-05-15T06:51:43.321Z,56.20
2019-05-15T06:53:51.521Z,56.20
2019-05-15T06:55:58.480Z,56.20
2019-05-15T06:58:04.088Z,56.20
2019-05-15T07:00:11.624Z,56.30
2019-05-15T07:02:19.159Z,56.20
2019-05-15T07:04:28.832Z,56.30
2019-05-15T07:06:37.933Z,56.30
2019-05-15T07:08:44.164Z,56.30
2019-05-15T07:10:51.306Z,56.30
2019-05-15T07:13:00.002Z,56.40
2019-05-15T07:15:05.688Z,56.40
2019-05-15T07:17:13.988Z,56.40
2019-05-15T07:19:22.024Z,56.50
2019-05-15T07:21:28.755Z,56.40
2019-05-15T07:23:35.467Z,56.50
2019-05-15T07:25:41.521Z,56.50
2019-05-15T07:27:47.969Z,56.50
2019-05-15T07:29:55.184Z,56.50
2019-05-15T07:32:02.416Z,56.50
2019-05-15T07:34:08.848Z,56.50
2019-05-15T07:36:15.252Z,56.50
2019-05-15T07:38:21.675Z,56.50
2019-05-15T07:40:29.159Z,56.50
2019-05-15T07:42:38.697Z,56.50
2019-05-15T07:44:43.644Z,56.60
2019-05-15T07:46:50.061Z,56.60
2019-05-15T07:48:58.352Z,56.60
2019-05-15T07:51:04.212Z,56.60
2019-05-15T07:53:12.421Z,56.60
2019-05-15T07:55:19.893Z,56.60
2019-05-15T07:57:29.712Z,56.60
2019-05-15T07:59:34.652Z,56.60
2019-05-15T08:01:43.052Z,56.60
2019-05-15T08:03:59.590Z,56.70
2019-05-15T08:06:02.137Z,56.70
2019-05-15T08:08:05.475Z,56.60
2019-05-15T08:10:10.692Z,56.50
2019-05-15T08:12:19.281Z,56.60
2019-05-15T08:14:26.044Z,56.50
2019-05-15T08:16:35.169Z,56.50
2019-05-15T08:18:42.587Z,56.60
2019-05-15T08:20:49.427Z,56.50
2019-05-15T08:22:54.793Z,56.20
2019-05-15T08:25:06.863Z,56.10
2019-05-15T08:27:13.185Z,55.90
2019-05-15T08:29:21.604Z,55.90
2019-05-15T08:31:28.647Z,55.80
2019-05-15T08:33:35.183Z,55.70
2019-05-15T08:35:44.611Z,55.50
2019-05-15T08:37:49.056Z,55.40
2019-05-15T08:39:59.600Z,55.30
2019-05-15T08:42:07.965Z,55.30
2019-05-15T08:44:18.714Z,55.10
2019-05-15T08:46:24.360Z,55.00
2019-05-15T08:48:32.966Z,54.90
2019-05-15T08:50:43.205Z,54.90
2019-05-15T08:52:49.620Z,54.90
2019-05-15T08:54:59.100Z,54.70
2019-05-15T08:57:08.452Z,54.70
2019-05-15T08:59:14.226Z,54.60
2019-05-15T09:01:19.866Z,54.60
2019-05-15T09:03:28.671Z,54.50
2019-05-15T09:05:33.702Z,54.40
2019-05-15T09:07:41.678Z,54.30
2019-05-15T09:09:50.507Z,54.30
2019-05-15T09:11:58.467Z,54.30
2019-05-15T09:14:08.197Z,54.30
2019-05-15T09:16:13.518Z,54.30
2019-05-15T09:18:20.233Z,54.20
2019-05-15T09:20:29.074Z,54.20
2019-05-15T09:22:38.273Z,54.20
2019-05-15T09:24:43.253Z,54.20
2019-05-15T09:26:49.243Z,54.20
2019-05-15T09:28:58.512Z,54.10
2019-05-15T09:31:04.266Z,54.10
2019-05-15T09:33:11.131Z,54.10
2019-05-15T09:35:20.047Z,54.10
2019-05-15T09:37:28.721Z,54.10
2019-05-15T09:39:38.134Z,54.30
2019-05-15T09:41:45.312Z,54.20
2019-05-15T09:43:51.388Z,54.30
2019-05-15T09:45:58.374Z,54.20
2019-05-15T09:48:11.079Z,54.30
2019-05-15T09:50:19.552Z,54.30
2019-05-15T09:52:29.814Z,54.30
2019-05-15T09:54:35.145Z,54.30
2019-05-15T09:56:44.285Z,54.30
2019-05-15T09:58:50.744Z,54.30
2019-05-15T10:00:59.095Z,54.20
2019-05-15T10:03:09.563Z,54.30
2019-05-15T10:05:18.761Z,54.30
2019-05-15T10:07:24.321Z,54.30
2019-05-15T10:09:32.310Z,54.30
2019-05-15T10:11:40.121Z,54.30
2019-05-15T10:13:48.233Z,54.30
2019-05-15T10:15:55.588Z,54.30
2019-05-15T10:18:01.782Z,54.30
2019-05-15T10:20:09.222Z,54.40
2019-05-15T10:22:13.938Z,54.40
2019-05-15T10:24:20.077Z,54.40
2019-05-15T10:26:29.259Z,54.40
2019-05-15T10:28:38.982Z,54.40
2019-05-15T10:30:45.078Z,54.40
2019-05-15T10:32:53.137Z,54.50
2019-05-15T10:34:59.853Z,54.60
2019-05-15T10:37:08.570Z,54.50
2019-05-15T10:39:14.028Z,54.60
2019-05-15T10:41:19.674Z,54.60
2019-05-15T10:43:28.767Z,54.70
2019-05-15T10:45:33.943Z,54.70
2019-05-15T10:47:39.385Z,54.70
2019-05-15T10:49:48.295Z,54.70
2019-05-15T10:51:54.725Z,54.80
2019-05-15T10:54:01.728Z,54.70
2019-05-15T10:56:12.253Z,54.70
2019-05-15T10:58:22.045Z,54.80
2019-05-15T11:00:28.604Z,54.80
2019-05-15T11:02:34.841Z,54.80
2019-05-15T11:04:43.474Z,54.80
2019-05-15T11:06:50.428Z,54.80
2019-05-15T11:08:58.383Z,54.80
2019-05-15T11:11:04.355Z,54.80
2019-05-15T11:13:09.813Z,54.80
2019-05-15T11:15:18.376Z,54.90
2019-05-15T11:17:23.563Z,54.90
2019-05-15T11:19:35.513Z,54.90
2019-05-15T11:21:38.661Z,55.00
2019-05-15T11:23:45.695Z,54.80
2019-05-15T11:25:52.431Z,53.90
2019-05-15T11:27:59.060Z,53.40
2019-05-15T11:30:04.732Z,53.10
2019-05-15T11:32:12.015Z,52.90
2019-05-15T11:34:18.757Z,52.60
2019-05-15T11:36:25.624Z,52.70
2019-05-15T11:38:33.049Z,52.80
2019-05-15T11:40:38.944Z,52.80
2019-05-15T11:42:48.583Z,52.70
2019-05-15T11:44:53.514Z,52.80
2019-05-15T11:47:02.029Z,52.80
2019-05-15T11:49:09.397Z,52.70
2019-05-15T11:51:18.423Z,52.70
2019-05-15T11:53:25.392Z,52.80
2019-05-15T11:55:33.605Z,52.70
2019-05-15T11:57:46.681Z,52.80
2019-05-15T11:59:55.094Z,52.70
2019-05-15T12:01:58.076Z,52.70
2019-05-15T12:04:03.126Z,52.70
2019-05-15T12:06:18.473Z,52.70
2019-05-15T12:08:19.532Z,52.70
2019-05-15T12:10:25.894Z,52.70
2019-05-15T12:12:32.924Z,52.70
2019-05-15T12:14:42.426Z,52.70
2019-05-15T12:17:05.075Z,52.70
2019-05-15T12:19:08.888Z,52.70
2019-05-15T12:21:07.598Z,52.70
2019-05-15T12:23:14.255Z,52.80
2019-05-15T12:25:21.634Z,52.70
2019-05-15T12:27:28.258Z,52.70
2019-05-15T12:29:35.551Z,52.70
2019-05-15T12:31:42.203Z,52.80
2019-05-15T12:33:48.978Z,52.90
2019-05-15T12:35:54.745Z,53.00
2019-05-15T12:38:01.018Z,53.10
2019-05-15T12:59:44.724Z,53.30
2019-05-15T13:01:35.461Z,53.30
2019-05-15T13:03:41.683Z,53.40
2019-05-15T13:05:49.272Z,53.40
2019-05-15T13:07:55.871Z,53.40
2019-05-15T13:10:03.415Z,53.30
2019-05-15T13:12:09.365Z,53.40
2019-05-15T13:14:18.864Z,53.40
2019-05-15T13:16:28.018Z,53.50
2019-05-15T13:18:33.585Z,53.50
2019-05-15T13:20:42.212Z,53.50
2019-05-15T13:25:01.936Z,53.50
2019-05-15T13:27:08.885Z,53.50
2019-05-15T13:29:18.194Z,53.50
2019-05-15T13:31:23.626Z,53.50
2019-05-15T13:33:28.965Z,53.50
2019-05-15T13:35:38.095Z,53.50
2019-05-15T13:37:45.548Z,54.10
2019-05-15T13:39:50.822Z,53.50
2019-05-15T13:41:58.482Z,53.60
2019-05-15T13:44:04.544Z,53.60
2019-05-15T13:46:13.086Z,53.60
2019-05-15T13:48:24.193Z,53.60
2019-05-15T13:50:30.445Z,53.60
2019-05-15T13:52:39.387Z,53.60
2019-05-15T13:54:48.336Z,53.60
2019-05-15T13:56:54.934Z,53.60
2019-05-15T13:59:02.546Z,53.60
2019-05-15T14:01:09.529Z,53.70
2019-05-15T14:03:16.372Z,53.60
2019-05-15T14:05:23.059Z,53.60
2019-05-15T14:07:44.706Z,53.60
2019-05-15T14:09:44.423Z,53.60
2019-05-15T14:11:49.322Z,53.60
2019-05-15T14:13:59.500Z,54.20
2019-05-15T14:16:09.611Z,53.60
2019-05-15T14:18:19.790Z,53.70
2019-05-15T14:20:27.066Z,53.60
2019-05-15T14:22:34.305Z,53.70
2019-05-15T14:24:42.435Z,53.60
2019-05-15T14:26:48.805Z,53.70
2019-05-15T14:28:58.665Z,53.60
2019-05-15T14:31:04.066Z,53.70
2019-05-15T14:33:09.465Z,53.60
2019-05-15T14:35:17.910Z,53.70
2019-05-15T14:37:23.235Z,53.70
2019-05-15T14:39:30.562Z,53.70
2019-05-15T14:41:38.181Z,53.70
2019-05-15T14:43:45.104Z,53.70
2019-05-15T14:45:54.477Z,53.70
2019-05-15T14:48:00.918Z,53.60
2019-05-15T14:50:10.583Z,54.30
2019-05-15T14:52:17.941Z,53.70
2019-05-15T14:54:25.617Z,53.80
2019-05-15T14:56:31.078Z,53.70
2019-05-15T14:58:38.916Z,53.60
2019-05-15T15:00:49.660Z,53.70
2019-05-15T15:02:52.848Z,53.70
2019-05-15T15:04:59.622Z,53.70
2019-05-15T15:07:08.533Z,53.70
2019-05-15T15:09:18.924Z,53.70
2019-05-15T15:11:28.332Z,53.70
2019-05-15T15:13:34.432Z,53.70
2019-05-15T15:15:42.290Z,53.70
2019-05-15T15:17:49.245Z,53.70
2019-05-15T15:20:00.155Z,53.70
2019-05-15T15:22:05.452Z,53.70
2019-05-15T15:24:18.921Z,53.70
2019-05-15T15:26:25.762Z,53.70
2019-05-15T15:28:31.315Z,53.70
2019-05-15T15:30:38.743Z,53.70
2019-05-15T15:32:48.582Z,53.70
2019-05-15T15:34:54.797Z,53.70
2019-05-15T15:37:00.780Z,53.70
2019-05-15T15:39:12.008Z,53.70
2019-05-15T15:41:24.481Z,53.70
2019-05-15T15:43:38.762Z,53.70
2019-05-15T15:45:52.955Z,53.70
2019-05-15T15:48:14.159Z,53.70
2019-05-15T15:50:38.425Z,53.80
2019-05-15T15:52:51.262Z,53.80
2019-05-15T15:54:58.718Z,53.80
2019-05-15T15:57:13.425Z,53.80
2019-05-15T15:59:28.783Z,53.80
2019-05-15T16:01:38.911Z,53.80
2019-05-15T16:03:49.451Z,53.70
2019-05-15T16:05:59.978Z,53.60
2019-05-15T16:08:08.258Z,53.50
2019-05-15T16:10:19.614Z,53.40
2019-05-15T16:12:31.276Z,53.40
2019-05-15T16:14:39.252Z,53.20
2019-05-15T16:16:49.286Z,53.20
2019-05-15T16:19:02.126Z,53.00
2019-05-15T16:21:19.267Z,53.00
2019-05-15T16:23:31.129Z,52.80
2019-05-15T16:25:43.512Z,52.70
2019-05-15T16:27:57.804Z,52.70
2019-05-15T16:30:15.601Z,52.60
2019-05-15T16:32:38.200Z,52.60
2019-05-15T16:34:50.916Z,52.50
2019-05-15T16:37:02.912Z,52.60
2019-05-15T16:39:35.443Z,52.50
2019-05-15T16:41:59.206Z,52.50
2019-05-15T16:47:38.813Z,52.40
2019-05-15T16:49:51.446Z,53.00
2019-05-15T16:52:01.660Z,52.30
2019-05-15T16:54:18.064Z,52.30
2019-05-15T16:56:31.858Z,52.30
2019-05-15T16:58:53.346Z,52.20
2019-05-15T17:01:08.887Z,52.20
2019-05-15T17:03:21.309Z,52.20
2019-05-15T17:05:38.907Z,52.20
2019-05-15T17:07:48.947Z,52.10
2019-05-15T17:09:58.589Z,52.10
2019-05-15T17:12:03.571Z,52.10
2019-05-15T17:14:10.702Z,52.00
2019-05-15T17:16:18.706Z,52.00
2019-05-15T17:18:24.191Z,52.00
2019-05-15T17:20:31.464Z,52.00
2019-05-15T17:22:38.088Z,52.00
2019-05-15T17:24:51.364Z,52.00
2019-05-15T17:27:04.211Z,52.00
2019-05-15T17:29:12.291Z,52.00
2019-05-15T17:31:19.058Z,52.00
2019-05-15T17:33:28.859Z,52.10
2019-05-15T17:35:34.460Z,52.20
2019-05-15T17:37:42.052Z,52.20
2019-05-15T17:39:48.521Z,52.10
2019-05-15T17:41:59.446Z,52.20
2019-05-15T17:44:07.683Z,52.20
2019-05-15T17:46:14.969Z,52.20
2019-05-15T17:48:22.083Z,52.20
2019-05-15T17:50:44.938Z,52.30
2019-05-15T17:52:43.496Z,52.30
2019-05-15T17:55:09.488Z,52.30
2019-05-15T17:57:19.507Z,52.40
2019-05-15T17:59:24.852Z,52.40
2019-05-15T18:01:30.805Z,52.50
2019-05-15T18:03:39.202Z,52.60
2019-05-15T18:05:48.440Z,52.80
2019-05-15T18:07:58.179Z,52.90
2019-05-15T18:10:03.794Z,53.10
2019-05-15T18:13:09.836Z,53.20
2019-05-15T18:15:19.379Z,53.40
2019-05-15T18:17:24.950Z,53.50
2019-05-15T18:19:33.811Z,53.50
2019-05-15T18:21:38.975Z,53.50
2019-05-15T18:23:45.393Z,53.80
2019-05-15T18:25:53.038Z,53.80
2019-05-15T18:27:59.969Z,54.10
2019-05-15T18:30:09.312Z,54.10
2019-05-15T18:32:15.307Z,54.10
2019-05-15T18:34:22.453Z,54.10
2019-05-15T18:36:28.677Z,54.20
2019-05-15T18:38:34.441Z,54.30
2019-05-15T18:40:40.257Z,54.40
2019-05-15T18:42:50.019Z,54.50
2019-05-15T18:44:58.346Z,54.50
2019-05-15T18:47:08.651Z,54.70
2019-05-15T18:49:17.964Z,54.70
2019-05-15T18:51:28.015Z,54.60
2019-05-15T18:53:33.509Z,54.70
2019-05-15T18:55:42.360Z,54.50
2019-05-15T18:57:49.037Z,54.60
2019-05-15T18:59:57.914Z,54.70
2019-05-15T19:02:04.031Z,54.70
2019-05-15T19:04:11.937Z,54.70
2019-05-15T19:06:18.598Z,54.70
2019-05-15T19:08:28.230Z,54.70
2019-05-15T19:10:38.604Z,54.70
2019-05-15T19:12:44.583Z,54.70
2019-05-15T19:14:52.815Z,54.80
2019-05-15T19:16:59.149Z,54.70
2019-05-15T19:19:07.799Z,54.80
2019-05-15T19:21:16.487Z,55.10
2019-05-15T19:23:24.379Z,55.40
2019-05-15T19:25:32.795Z,55.20
2019-05-15T19:27:39.420Z,55.30
2019-05-15T19:29:45.290Z,55.20
2019-05-15T19:31:51.615Z,55.10
